Time;durP1;ratioP1;P1;durP2;ratioP2;P2;SDS_P1;SDS_P2;PMS_P1;PMS_P2;Temp;Humidity;BMP_temperature;BMP_pressure;BME280_temperature;BME280_humidity;BME280_pressure;Samples;Min_cycle;Max_cycle;Signal;HPM_P1;HPM_P2
2022/08/21 00:00:54;;;;;;;2.25;0.90;;;21.00;18.20;;;;;;5054216;28;20059;-87
2022/08/21 00:03:20;;;;;;;3.80;1.42;;;21.00;23.00;;;;;;5054746;28;20025;-87
2022/08/21 00:05:50;;;;;;;3.35;1.20;;;21.00;19.10;;;;;;5054484;28;20033;-87
2022/08/21 00:08:18;;;;;;;1.38;1.15;;;20.90;23.30;;;;;;5054440;28;20113;-87
2022/08/21 00:10:45;;;;;;;2.45;1.20;;;20.90;23.00;;;;;;5054435;28;20048;-87
2022/08/21 00:13:11;;;;;;;2.08;1.27;;;20.90;23.80;;;;;;5054475;28;20104;-87
2022/08/21 00:15:38;;;;;;;2.78;1.50;;;20.40;23.20;;;;;;5054116;28;20021;-87
2022/08/21 00:18:06;;;;;;;3.00;1.40;;;20.20;24.00;;;;;;5054469;28;20025;-87
2022/08/21 00:20:33;;;;;;;7.55;1.30;;;20.00;24.60;;;;;;5054387;28;20021;-87
2022/08/21 00:22:58;;;;;;;4.65;1.30;;;19.90;25.10;;;;;;5054314;28;20036;-87
2022/08/21 00:25:24;;;;;;;3.40;1.40;;;19.90;21.60;;;;;;5053384;28;20029;-87
2022/08/21 00:27:51;;;;;;;3.17;1.30;;;20.00;19.60;;;;;;5053945;28;20413;-87
2022/08/21 00:30:18;;;;;;;1.92;1.15;;;20.10;22.40;;;;;;5053445;28;20124;-87
2022/08/21 00:32:45;;;;;;;2.63;1.15;;;20.20;25.10;;;;;;5054200;28;20017;-87
2022/08/21 00:35:16;;;;;;;1.77;1.23;;;20.30;21.40;;;;;;5054179;28;20025;-87
2022/08/21 00:37:42;;;;;;;1.23;1.10;;;20.20;24.50;;;;;;5054080;28;20028;-87
2022/08/21 00:40:12;;;;;;;4.38;1.30;;;20.10;21.40;;;;;;5053969;28;20104;-87
2022/08/21 00:42:38;;;;;;;4.22;1.10;;;20.10;26.10;;;;;;5053908;28;20017;-87
2022/08/21 00:45:06;;;;;;;1.50;1.10;;;20.10;21.80;;;;;;5053668;28;20033;-87
2022/08/21 00:47:31;;;;;;;1.92;1.30;;;20.10;25.90;;;;;;5053785;28;20060;-87
2022/08/21 00:49:58;;;;;;;3.35;1.13;;;20.10;20.10;;;;;;5053777;28;20114;-87
2022/08/21 00:52:27;;;;;;;3.83;1.35;;;20.10;19.20;;;;;;5053680;28;20021;-87
2022/08/21 00:54:54;;;;;;;3.05;1.20;;;20.10;24.80;;;;;;5053518;28;20032;-86
2022/08/21 00:57:25;;;;;;;1.52;1.10;;;20.20;24.40;;;;;;5053654;28;20029;-87
2022/08/21 00:59:53;;;;;;;2.67;1.20;;;20.30;23.90;;;;;;5053268;28;20028;-87
2022/08/21 01:02:20;;;;;;;2.08;1.20;;;20.20;24.20;;;;;;5053668;28;20389;-87
2022/08/21 01:04:46;;;;;;;2.50;1.10;;;20.30;24.80;;;;;;5053323;28;20112;-87
2022/08/21 01:07:12;;;;;;;3.92;1.38;;;20.30;21.20;;;;;;5053529;28;20064;-87
2022/08/21 01:09:38;;;;;;;7.68;1.58;;;20.20;24.60;;;;;;5053307;28;20500;-87
2022/08/21 01:12:04;;;;;;;5.50;1.20;;;19.90;24.70;;;;;;5053348;28;20027;-87
2022/08/21 01:14:31;;;;;;;2.47;1.30;;;19.70;23.00;;;;;;5052861;28;20036;-87
2022/08/21 01:16:58;;;;;;;2.17;1.40;;;19.60;26.40;;;;;;5053289;28;20021;-87
2022/08/21 01:19:28;;;;;;;2.78;1.17;;;19.80;24.80;;;;;;5053080;28;20544;-87
2022/08/21 01:21:54;;;;;;;2.35;1.55;;;20.00;25.00;;;;;;5053316;28;20028;-87
2022/08/21 01:24:21;;;;;;;2.22;1.23;;;20.00;22.70;;;;;;5053174;28;20024;-87
2022/08/21 01:26:48;;;;;;;4.00;1.30;;;20.00;20.80;;;;;;5052528;28;20099;-87
2022/08/21 01:29:22;;;;;;;3.22;1.42;;;20.10;19.60;;;;;;5052809;28;20029;-87
2022/08/21 01:31:48;;;;;;;2.00;1.20;;;20.10;23.40;;;;;;5053034;28;20033;-87
2022/08/21 01:34:16;;;;;;;2.08;1.30;;;20.10;23.80;;;;;;5052995;28;20025;-87
2022/08/21 01:36:43;;;;;;;1.83;1.10;;;20.00;26.50;;;;;;5052939;28;20024;-87
2022/08/21 01:39:11;;;;;;;1.83;1.33;;;19.70;28.40;;;;;;5035187;28;20071;-87
2022/08/21 01:41:37;;;;;;;3.42;1.23;;;19.70;28.40;;;;;;5052439;28;20389;-87
2022/08/21 01:44:03;;;;;;;2.97;1.52;;;19.60;26.40;;;;;;5052686;28;20029;-87
2022/08/21 01:46:29;;;;;;;4.05;1.33;;;19.40;28.10;;;;;;5052909;28;20036;-87
2022/08/21 01:48:55;;;;;;;3.58;1.40;;;19.30;25.60;;;;;;5052649;28;20460;-87
2022/08/21 01:51:20;;;;;;;4.15;1.30;;;19.10;25.00;;;;;;5052683;28;20025;-87
2022/08/21 01:53:46;;;;;;;7.22;1.52;;;19.10;26.10;;;;;;5052660;28;20025;-87
2022/08/21 01:56:14;;;;;;;1.38;1.20;;;19.10;24.70;;;;;;5052257;28;20090;-87
2022/08/21 01:58:43;;;;;;;3.30;1.40;;;19.10;27.70;;;;;;5052671;28;20116;-87
2022/08/21 02:01:09;;;;;;;5.72;1.30;;;19.20;26.90;;;;;;5052598;28;20521;-87
2022/08/21 02:03:36;;;;;;;2.88;1.30;;;19.20;28.40;;;;;;5052637;28;20025;-87
2022/08/21 02:06:03;;;;;;;2.30;1.23;;;19.10;28.30;;;;;;5052486;28;20478;-88
2022/08/21 02:08:29;;;;;;;5.10;1.58;;;19.10;28.30;;;;;;5052524;28;20369;-87
2022/08/21 02:10:55;;;;;;;3.70;1.30;;;19.10;24.50;;;;;;5052159;28;20033;-87
2022/08/21 02:13:20;;;;;;;3.20;1.30;;;19.10;24.70;;;;;;5052296;28;20025;-86
2022/08/21 02:15:46;;;;;;;3.33;1.40;;;19.10;22.40;;;;;;5052509;28;20025;-87
2022/08/21 02:18:12;;;;;;;3.42;1.40;;;19.00;24.20;;;;;;5052326;28;20032;-86
2022/08/21 02:20:41;;;;;;;2.38;1.50;;;18.90;24.30;;;;;;5052475;28;20056;-86
2022/08/21 02:23:08;;;;;;;2.05;1.30;;;18.80;27.40;;;;;;5052404;28;20059;-87
2022/08/21 02:25:34;;;;;;;3.55;1.38;;;18.80;28.90;;;;;;5052085;28;20537;-86
2022/08/21 02:28:04;;;;;;;4.68;1.50;;;18.80;29.00;;;;;;5052264;28;20587;-87
2022/08/21 02:30:34;;;;;;;2.70;1.42;;;18.80;28.30;;;;;;5051939;28;20076;-88
2022/08/21 02:33:01;;;;;;;3.17;1.33;;;18.70;37.30;;;;;;5052345;28;20484;-86
2022/08/21 02:35:27;;;;;;;1.92;1.50;;;18.70;29.40;;;;;;5052337;28;20401;-87
2022/08/21 02:37:57;;;;;;;4.05;1.48;;;18.70;29.60;;;;;;5052224;28;20033;-87
2022/08/21 02:40:25;;;;;;;2.85;1.40;;;18.90;28.80;;;;;;5051776;28;20025;-87
2022/08/21 02:42:51;;;;;;;2.40;1.40;;;19.00;41.10;;;;;;5052081;28;20025;-87
2022/08/21 02:45:18;;;;;;;4.40;1.60;;;19.00;22.50;;;;;;5052291;28;20044;-87
2022/08/21 02:47:51;;;;;;;3.80;1.38;;;18.80;28.00;;;;;;5052514;28;20068;-87
2022/08/21 02:50:24;;;;;;;1.88;1.30;;;18.70;30.60;;;;;;5055900;28;20048;-87
2022/08/21 02:52:52;;;;;;;2.72;1.48;;;18.70;31.20;;;;;;5056035;28;20029;-87
2022/08/21 02:55:18;;;;;;;4.45;1.40;;;18.70;27.00;;;;;;5055627;28;20021;-87
2022/08/21 02:57:44;;;;;;;3.47;1.60;;;18.60;28.80;;;;;;5055928;28;20029;-87
2022/08/21 03:00:11;;;;;;;2.80;1.40;;;18.60;28.20;;;;;;5055747;28;20381;-86
2022/08/21 03:02:37;;;;;;;1.77;1.33;;;18.70;27.00;;;;;;5055854;28;20025;-87
2022/08/21 03:05:04;;;;;;;3.00;1.25;;;18.50;25.80;;;;;;5055763;28;20112;-87
2022/08/21 03:07:29;;;;;;;3.25;1.20;;;18.50;30.70;;;;;;5055600;28;20082;-87
2022/08/21 03:09:55;;;;;;;5.72;1.60;;;18.50;29.40;;;;;;5055324;28;20041;-87
2022/08/21 03:12:21;;;;;;;2.53;1.38;;;18.40;29.70;;;;;;5055572;28;20474;-87
2022/08/21 03:14:46;;;;;;;5.05;1.83;;;18.30;29.60;;;;;;5037500;28;20025;-87
2022/08/21 03:17:12;;;;;;;3.90;1.70;;;18.20;25.60;;;;;;5055607;28;20025;-87
2022/08/21 03:19:37;;;;;;;3.53;1.35;;;18.20;28.10;;;;;;5055407;28;20075;-87
2022/08/21 03:22:03;;;;;;;3.60;1.77;;;18.20;26.90;;;;;;5055355;28;20112;-87
2022/08/21 03:24:29;;;;;;;3.80;1.50;;;18.20;28.20;;;;;;5055064;28;20111;-87
2022/08/21 03:26:54;;;;;;;3.17;1.70;;;18.30;27.20;;;;;;5055145;28;20053;-86
2022/08/21 03:29:20;;;;;;;1.98;1.40;;;18.30;27.90;;;;;;5055150;28;20041;-87
2022/08/21 03:31:46;;;;;;;4.78;1.50;;;18.10;28.70;;;;;;5055147;28;20021;-87
2022/08/21 03:34:11;;;;;;;4.38;1.60;;;17.90;27.10;;;;;;5055305;28;20036;-87
2022/08/21 03:36:37;;;;;;;4.65;1.30;;;17.90;27.20;;;;;;5055316;28;20493;-87
2022/08/21 03:39:03;;;;;;;4.43;1.52;;;17.90;28.50;;;;;;5054847;28;20033;-86
2022/08/21 03:41:29;;;;;;;3.00;1.45;;;18.00;28.70;;;;;;5055173;28;20385;-87
2022/08/21 03:43:54;;;;;;;1.70;1.23;;;17.90;30.00;;;;;;5037046;28;20078;-86
2022/08/21 03:46:20;;;;;;;1.50;1.40;;;17.80;29.00;;;;;;5055019;28;20029;-87
2022/08/21 03:48:47;;;;;;;5.93;1.65;;;17.80;30.40;;;;;;5054928;28;20032;-87
2022/08/21 03:51:12;;;;;;;4.43;1.40;;;17.60;33.70;;;;;;5054896;28;20419;-87
2022/08/21 03:53:38;;;;;;;3.53;1.60;;;17.60;29.80;;;;;;5054539;28;20113;-87
2022/08/21 03:56:05;;;;;;;4.82;1.58;;;17.70;32.60;;;;;;5054804;28;20485;-86
2022/08/21 03:58:31;;;;;;;3.17;1.50;;;17.70;33.90;;;;;;5054813;28;20418;-87
2022/08/21 04:00:59;;;;;;;3.85;1.48;;;17.60;30.70;;;;;;5053586;28;20096;-87
2022/08/21 04:03:26;;;;;;;3.90;1.60;;;17.50;35.80;;;;;;5054634;28;20469;-87
2022/08/21 04:05:52;;;;;;;2.20;1.60;;;17.50;32.30;;;;;;5054736;28;20021;-87
2022/08/21 04:08:21;;;;;;;2.40;1.50;;;17.60;31.50;;;;;;5054225;28;20192;-87
2022/08/21 04:10:50;;;;;;;2.38;1.40;;;17.60;34.80;;;;;;5054542;28;20139;-87
2022/08/21 04:13:16;;;;;;;4.13;1.70;;;17.60;35.80;;;;;;5054587;28;20051;-87
2022/08/21 04:15:42;;;;;;;3.35;1.55;;;17.50;26.30;;;;;;5054433;28;20489;-87
2022/08/21 04:18:08;;;;;;;3.75;1.75;;;17.40;33.00;;;;;;5054461;28;20071;-87
2022/08/21 04:20:34;;;;;;;2.75;1.70;;;17.30;31.50;;;;;;5054368;28;20381;-87
2022/08/21 04:23:00;;;;;;;2.80;1.63;;;17.30;31.40;;;;;;5054007;28;20028;-87
2022/08/21 04:25:26;;;;;;;5.03;1.75;;;17.20;36.60;;;;;;5054252;28;20025;-87
2022/08/21 04:27:52;;;;;;;3.33;1.77;;;17.20;33.00;;;;;;5036098;28;20174;-87
2022/08/21 04:30:18;;;;;;;5.15;1.60;;;17.30;30.90;;;;;;5053910;28;20489;-87
2022/08/21 04:32:49;;;;;;;4.18;1.83;;;17.10;32.60;;;;;;5054180;28;20025;-87
2022/08/21 04:35:17;;;;;;;4.78;1.50;;;17.10;38.00;;;;;;5053674;28;20032;-86
2022/08/21 04:37:43;;;;;;;2.78;1.50;;;17.00;38.40;;;;;;5054096;28;20029;-87
2022/08/21 04:40:11;;;;;;;8.68;1.85;;;17.00;34.20;;;;;;5053889;28;20033;-87
2022/08/21 04:42:49;;;;;;;6.13;1.77;;;17.00;38.40;;;;;;5053926;28;20036;-87
2022/08/21 04:45:23;;;;;;;2.63;1.60;;;17.20;37.30;;;;;;5053851;28;20029;-87
2022/08/21 04:47:51;;;;;;;6.13;1.80;;;17.10;35.80;;;;;;5053962;28;20063;-87
2022/08/21 04:50:17;;;;;;;4.10;1.90;;;17.00;91.50;;;;;;5053287;28;20033;-86
2022/08/21 04:52:43;;;;;;;4.20;1.80;;;16.90;90.00;;;;;;5053815;28;20359;-87
2022/08/21 04:55:10;;;;;;;3.88;1.70;;;17.00;90.60;;;;;;5035809;28;20037;-87
2022/08/21 04:57:35;;;;;;;3.53;1.92;;;17.00;90.70;;;;;;5053658;28;20021;-87
2022/08/21 05:00:04;;;;;;;3.55;1.70;;;17.00;69.00;;;;;;5053575;28;20421;-87
2022/08/21 05:02:32;;;;;;;4.85;1.85;;;16.90;90.70;;;;;;5053552;28;20021;-87
2022/08/21 05:04:59;;;;;;;4.90;1.75;;;16.70;88.80;;;;;;5053227;28;20020;-86
2022/08/21 05:07:28;;;;;;;4.18;1.92;;;16.70;88.60;;;;;;5053530;28;20067;-86
2022/08/21 05:09:54;;;;;;;8.05;2.08;;;16.90;92.40;;;;;;5053345;28;20380;-86
2022/08/21 05:12:21;;;;;;;4.72;1.90;;;17.00;43.70;;;;;;5053044;28;20025;-87
2022/08/21 05:14:46;;;;;;;3.35;1.70;;;17.10;47.80;;;;;;5053198;28;20120;-86
2022/08/21 05:17:13;;;;;;;3.15;1.80;;;16.90;45.20;;;;;;5053242;28;20063;-87
2022/08/21 05:19:38;;;;;;;4.30;1.85;;;16.90;51.20;;;;;;5052902;28;20029;-87
2022/08/21 05:22:04;;;;;;;4.47;1.83;;;16.90;49.00;;;;;;5053214;28;20032;-87
2022/08/21 05:24:29;;;;;;;5.60;1.80;;;16.90;51.40;;;;;;5053197;28;20025;-87
2022/08/21 05:26:56;;;;;;;3.20;1.70;;;16.90;52.40;;;;;;5052864;28;20131;-86
2022/08/21 05:29:21;;;;;;;8.15;2.00;;;16.80;56.70;;;;;;5052676;28;20033;-87
2022/08/21 05:31:47;;;;;;;5.00;1.80;;;17.10;45.40;;;;;;5052987;28;20087;-87
2022/08/21 05:34:17;;;;;;;5.05;1.70;;;17.10;57.50;;;;;;5052727;28;20071;-87
2022/08/21 05:36:43;;;;;;;5.25;2.28;;;17.10;59.90;;;;;;5053093;28;20032;-87
2022/08/21 05:39:08;;;;;;;5.63;1.60;;;17.10;53.80;;;;;;5053011;28;20388;-87
2022/08/21 05:41:34;;;;;;;6.00;2.00;;;17.20;49.30;;;;;;5052843;28;20474;-87
2022/08/21 05:44:00;;;;;;;4.40;1.70;;;17.30;36.10;;;;;;5052896;28;20390;-87
2022/08/21 05:46:25;;;;;;;1.88;1.67;;;17.30;37.10;;;;;;5034819;28;20029;-87
2022/08/21 05:48:51;;;;;;;2.88;1.80;;;17.40;38.30;;;;;;5052422;28;20489;-87
2022/08/21 05:51:17;;;;;;;3.70;1.67;;;17.40;39.50;;;;;;5052751;28;20021;-87
2022/08/21 05:53:43;;;;;;;6.07;2.10;;;17.50;41.70;;;;;;5052719;28;20056;-87
2022/08/21 05:56:11;;;;;;;5.90;2.00;;;17.50;45.80;;;;;;5052704;28;20154;-87
2022/08/21 05:58:36;;;;;;;5.15;2.13;;;17.40;47.20;;;;;;5052717;28;20036;-87
2022/08/21 06:01:03;;;;;;;4.22;1.90;;;17.50;40.80;;;;;;5052598;28;20397;-86
2022/08/21 06:03:31;;;;;;;2.95;1.70;;;17.60;41.10;;;;;;5052202;28;20096;-87
2022/08/21 06:05:58;;;;;;;3.83;1.80;;;17.70;45.20;;;;;;5052583;28;20029;-87
2022/08/21 06:08:24;;;;;;;3.22;1.67;;;17.70;39.50;;;;;;5034576;28;20100;-87
2022/08/21 06:10:51;;;;;;;2.70;2.00;;;17.90;39.70;;;;;;5052494;28;20037;-87
2022/08/21 06:13:19;;;;;;;3.47;1.77;;;17.80;44.90;;;;;;5052314;28;20036;-87
2022/08/21 06:15:45;;;;;;;2.53;1.58;;;18.00;45.50;;;;;;5052482;28;20031;-87
2022/08/21 06:18:11;;;;;;;2.65;1.90;;;18.00;39.90;;;;;;5052102;28;20464;-87
2022/08/21 06:20:37;;;;;;;2.85;2.05;;;18.10;39.50;;;;;;5052348;28;20040;-87
2022/08/21 06:23:03;;;;;;;4.60;1.95;;;18.10;45.70;;;;;;5053288;28;20035;-87
2022/08/21 06:25:28;;;;;;;3.75;1.83;;;18.10;45.60;;;;;;5056219;28;20029;-87
2022/08/21 06:28:04;;;;;;;2.90;1.83;;;18.10;37.50;;;;;;5056428;28;20454;-87
2022/08/21 06:30:29;;;;;;;5.50;1.88;;;18.20;45.70;;;;;;5056180;28;20114;-87
2022/08/21 06:32:55;;;;;;;5.22;2.30;;;18.40;41.10;;;;;;5055956;28;20473;-87
2022/08/21 06:35:21;;;;;;;6.93;1.90;;;18.40;40.40;;;;;;5056423;28;20087;-87
2022/08/21 06:37:46;;;;;;;3.58;2.08;;;18.60;41.20;;;;;;5056308;28;20017;-87
2022/08/21 06:40:12;;;;;;;4.80;2.10;;;18.60;45.40;;;;;;5056070;28;20462;-87
2022/08/21 06:42:38;;;;;;;7.28;2.03;;;18.70;42.20;;;;;;5056480;28;20056;-87
2022/08/21 06:45:05;;;;;;;4.60;1.90;;;18.70;44.60;;;;;;5056329;28;20044;-87
2022/08/21 06:47:30;;;;;;;5.15;1.90;;;18.80;50.10;;;;;;5055759;28;20063;-87
2022/08/21 06:49:56;;;;;;;3.95;1.77;;;18.80;44.60;;;;;;5056012;28;20033;-87
2022/08/21 06:52:22;;;;;;;5.88;2.08;;;18.90;43.70;;;;;;5056093;28;20481;-87
2022/08/21 06:54:47;;;;;;;4.72;1.70;;;18.80;41.60;;;;;;5056092;28;20029;-87
2022/08/21 06:57:13;;;;;;;4.75;2.20;;;18.90;43.80;;;;;;5055903;28;20029;-87
2022/08/21 06:59:39;;;;;;;4.38;2.05;;;18.90;42.20;;;;;;5055893;28;20017;-86
2022/08/21 07:02:04;;;;;;;6.03;1.80;;;19.00;38.90;;;;;;5055398;28;20025;-86
2022/08/21 07:04:30;;;;;;;3.75;1.60;;;19.10;43.40;;;;;;5055885;28;20421;-87
2022/08/21 07:06:56;;;;;;;2.85;1.77;;;19.10;38.90;;;;;;5055834;28;20031;-86
2022/08/21 07:09:21;;;;;;;3.35;1.90;;;19.10;39.80;;;;;;5055511;28;20037;-87
2022/08/21 07:11:51;;;;;;;3.33;1.80;;;19.20;41.90;;;;;;5055692;28;20117;-86
2022/08/21 07:14:17;;;;;;;3.05;1.90;;;19.30;52.20;;;;;;5055428;28;20021;-87
2022/08/21 07:16:43;;;;;;;3.40;1.90;;;19.20;38.30;;;;;;5055272;28;20113;-87
2022/08/21 07:19:08;;;;;;;3.47;1.88;;;19.30;37.60;;;;;;5055447;28;20087;-87
2022/08/21 07:21:34;;;;;;;4.40;1.90;;;19.30;40.40;;;;;;5055284;28;20024;-87
2022/08/21 07:24:00;;;;;;;4.25;2.03;;;19.40;49.40;;;;;;5055687;28;20120;-87
2022/08/21 07:26:25;;;;;;;4.05;1.80;;;19.50;38.60;;;;;;5055147;28;20032;-86
2022/08/21 07:28:51;;;;;;;6.00;2.35;;;19.50;42.10;;;;;;5055120;28;20057;-87
2022/08/21 07:31:19;;;;;;;5.85;2.00;;;19.50;37.60;;;;;;5055041;28;20052;-87
2022/08/21 07:33:45;;;;;;;5.18;2.28;;;19.60;46.40;;;;;;5054794;28;20040;-87
2022/08/21 07:36:11;;;;;;;6.88;2.20;;;19.60;49.60;;;;;;5055315;28;20512;-86
2022/08/21 07:38:37;;;;;;;3.80;2.17;;;19.60;37.50;;;;;;5055305;28;20409;-87
2022/08/21 07:41:10;;;;;;;4.40;2.10;;;19.70;38.30;;;;;;5055131;28;20018;-86
2022/08/21 07:43:37;;;;;;;4.30;2.25;;;19.70;39.80;;;;;;5055016;28;20040;-87
2022/08/21 07:46:03;;;;;;;5.05;2.20;;;19.70;45.70;;;;;;5055081;28;20550;-86
2022/08/21 07:48:28;;;;;;;4.22;2.10;;;19.80;44.90;;;;;;5054999;28;20119;-87
2022/08/21 07:50:55;;;;;;;3.83;2.53;;;19.90;46.60;;;;;;5054903;28;20050;-86
2022/08/21 07:53:20;;;;;;;6.47;3.30;;;20.10;47.30;;;;;;5054951;28;20020;-87
2022/08/21 07:55:46;;;;;;;3.10;2.20;;;20.20;43.40;;;;;;5054874;28;20036;-87
2022/08/21 07:58:12;;;;;;;6.35;2.13;;;20.10;38.30;;;;;;5054405;28;20052;-87
2022/08/21 08:00:39;;;;;;;4.18;2.20;;;20.20;45.00;;;;;;5054704;28;20031;-87
2022/08/21 08:03:04;;;;;;;5.15;2.70;;;20.30;51.30;;;;;;5054597;28;20039;-87
2022/08/21 08:05:31;;;;;;;4.35;2.10;;;20.30;45.90;;;;;;5054615;28;20100;-87
2022/08/21 08:07:57;;;;;;;4.78;2.20;;;20.50;49.00;;;;;;5054685;28;20055;-87
2022/08/21 08:10:24;;;;;;;3.70;1.90;;;20.30;43.30;;;;;;5054367;28;20668;-86
2022/08/21 08:12:51;;;;;;;2.85;1.92;;;20.40;52.00;;;;;;5054206;28;20051;-87
2022/08/21 08:15:20;;;;;;;2.78;2.03;;;20.50;53.10;;;;;;5054377;28;20036;-87
2022/08/21 08:17:47;;;;;;;3.88;2.10;;;20.40;48.60;;;;;;5054418;28;20032;-87
2022/08/21 08:20:15;;;;;;;4.38;2.25;;;20.40;47.00;;;;;;5054268;28;20032;-87
2022/08/21 08:22:42;;;;;;;4.63;2.30;;;20.50;51.00;;;;;;5054333;28;20131;-87
2022/08/21 08:25:10;;;;;;;4.22;2.28;;;20.50;56.60;;;;;;5054324;28;20048;-87
2022/08/21 08:27:36;;;;;;;4.43;2.22;;;20.70;52.20;;;;;;5053769;28;20053;-87
2022/08/21 08:30:02;;;;;;;3.63;1.80;;;20.70;72.90;;;;;;5054020;28;20041;-87
2022/08/21 08:32:28;;;;;;;3.47;2.00;;;20.70;53.50;;;;;;5054047;28;20421;-86
2022/08/21 08:34:54;;;;;;;4.78;2.40;;;21.00;69.50;;;;;;5054104;28;20033;-87
2022/08/21 08:37:20;;;;;;;5.05;1.95;;;21.10;64.40;;;;;;5054174;28;20025;-87
2022/08/21 08:39:46;;;;;;;3.35;1.75;;;21.10;65.00;;;;;;5036089;28;20094;-87
2022/08/21 08:42:28;;;;;;;3.75;2.05;;;21.20;69.20;;;;;;5053633;28;20473;-87
2022/08/21 08:45:23;;;;;;;4.05;2.20;;;21.20;72.60;;;;;;5053767;28;20025;-87
2022/08/21 08:47:57;;;;;;;4.30;2.28;;;21.30;69.60;;;;;;5051695;28;20029;-87
2022/08/21 08:50:49;;;;;;;4.25;1.95;;;21.30;68.20;;;;;;5053671;28;20040;-87
2022/08/21 08:53:24;;;;;;;4.82;1.95;;;21.50;80.50;;;;;;5053796;28;20493;-87
2022/08/21 08:55:52;;;;;;;4.93;2.10;;;21.60;65.20;;;;;;5053821;28;20028;-87
2022/08/21 08:58:40;;;;;;;9.10;2.42;;;21.60;69.10;;;;;;5053267;28;20033;-87
2022/08/21 09:01:17;;;;;;;4.45;2.10;;;21.60;64.80;;;;;;5053507;28;20025;-87
2022/08/21 09:03:44;;;;;;;2.78;1.70;;;21.70;56.90;;;;;;5053517;28;20043;-87
2022/08/21 09:06:28;;;;;;;2.10;1.90;;;21.60;70.10;;;;;;5053563;28;20029;-87
2022/08/21 09:09:44;;;;;;;3.05;1.92;;;21.70;82.00;;;;;;5053178;28;20041;-87
2022/08/21 09:12:18;;;;;;;3.20;1.60;;;21.90;71.10;;;;;;4972219;28;20474;-86
2022/08/21 09:15:21;;;;;;;3.22;1.85;;;21.90;68.40;;;;;;4972239;28;20089;-87
2022/08/21 09:18:02;;;;;;;9.63;2.15;;;22.20;81.90;;;;;;4972404;28;20566;-87
2022/08/21 09:20:38;;;;;;;3.42;1.95;;;22.20;63.90;;;;;;4972418;28;20023;-87
2022/08/21 09:23:29;;;;;;;4.55;2.00;;;22.30;69.80;;;;;;4972345;28;20070;-87
2022/08/21 09:26:12;;;;;;;2.42;1.70;;;22.60;70.60;;;;;;4972191;28;20027;-86
2022/08/21 09:28:40;;;;;;;3.15;1.73;;;22.70;59.00;;;;;;4972049;28;21326;-87
2022/08/21 09:31:10;;;;;;;2.95;1.60;;;22.80;51.90;;;;;;4972199;28;20030;-87
2022/08/21 09:33:36;;;;;;;2.90;1.95;;;22.80;64.40;;;;;;4972177;28;20472;-87
2022/08/21 09:36:02;;;;;;;3.00;1.60;;;22.90;52.30;;;;;;4972210;28;20047;-87
2022/08/21 09:38:33;;;;;;;3.60;1.70;;;23.10;72.00;;;;;;4972345;28;20061;-87
2022/08/21 09:41:03;;;;;;;4.65;1.90;;;23.20;65.80;;;;;;4971875;28;20089;-87
2022/08/21 09:43:29;;;;;;;2.55;1.58;;;23.30;61.80;;;;;;4972026;28;20061;-88
2022/08/21 09:46:21;;;;;;;2.22;1.50;;;23.30;62.40;;;;;;4963957;28;20054;-87
2022/08/21 09:48:49;;;;;;;2.03;1.33;;;23.40;56.70;;;;;;5038692;28;20112;-87
2022/08/21 09:51:22;;;;;;;3.05;1.60;;;23.50;56.70;;;;;;5052900;28;20109;-87
2022/08/21 09:53:53;;;;;;;3.38;1.77;;;23.70;52.60;;;;;;5052711;28;20024;-87
2022/08/21 09:59:24;;;;;;;6.07;1.70;;;24.00;58.30;;;;;;5052896;28;20079;-87
2022/08/21 10:01:51;;;;;;;3.65;1.85;;;24.20;50.00;;;;;;5052641;28;20047;-87
2022/08/21 10:04:22;;;;;;;2.13;1.60;;;24.00;57.30;;;;;;5052682;28;20021;-87
2022/08/21 10:06:48;;;;;;;1.77;1.52;;;24.10;53.50;;;;;;5052655;28;20029;-88
2022/08/21 10:09:16;;;;;;;2.70;1.70;;;24.30;37.10;;;;;;5034217;28;20041;-88
2022/08/21 10:11:53;;;;;;;2.50;1.75;;;24.60;48.70;;;;;;5052648;28;20025;-88
2022/08/21 10:14:19;;;;;;;3.28;1.60;;;24.80;47.80;;;;;;5052404;28;20047;-88
2022/08/21 10:17:39;;;;;;;3.15;1.67;;;24.90;48.10;;;;;;5052529;28;20055;-88
2022/08/21 10:20:51;;;;;;;3.65;1.77;;;25.10;54.00;;;;;;4965019;28;20030;-88
2022/08/21 10:23:35;;;;;;;1.92;1.60;;;25.70;48.10;;;;;;4963950;28;20039;-88
2022/08/21 10:26:36;;;;;;;3.47;1.55;;;26.40;44.50;;;;;;4971855;28;20078;-88
2022/08/21 10:29:07;;;;;;;3.92;1.65;;;28.80;54.30;;;;;;4971494;28;20169;-88
2022/08/21 10:31:42;;;;;;;3.40;1.63;;;33.40;74.60;;;;;;4955307;28;20035;-89
2022/08/21 10:34:24;;;;;;;4.88;1.90;;;36.10;49.80;;;;;;4971563;28;20571;-89
2022/08/21 10:37:11;;;;;;;2.50;1.70;;;37.40;63.20;;;;;;4971463;28;20436;-88
2022/08/21 10:40:05;;;;;;;2.85;1.63;;;37.40;59.70;;;;;;4971040;28;20539;-89
2022/08/21 10:42:38;;;;;;;3.80;1.52;;;37.60;76.20;;;;;;4971166;28;20031;-89
2022/08/21 10:45:29;;;;;;;4.45;1.50;;;39.70;57.70;;;;;;4971510;28;20058;-89
2022/08/21 10:47:59;;;;;;;3.15;1.40;;;41.40;48.80;;;;;;4971486;28;20198;-89
2022/08/21 10:50:58;;;;;;;2.45;1.35;;;40.90;61.40;;;;;;4971200;28;20038;-89
2022/08/21 10:53:41;;;;;;;2.25;1.30;;;41.20;62.10;;;;;;4984888;28;20042;-89
2022/08/21 10:56:35;;;;;;;4.80;1.73;;;40.30;67.50;;;;;;5045492;28;20111;-89
2022/08/21 10:59:26;;;;;;;2.30;1.17;;;41.90;75.40;;;;;;5049427;28;20044;-89
2022/08/21 11:02:03;;;;;;;2.28;1.67;;;41.40;67.80;;;;;;5052108;28;20021;-89
2022/08/21 11:04:36;;;;;;;2.92;1.58;;;41.10;67.90;;;;;;5052100;28;20024;-90
2022/08/21 11:07:16;;;;;;;2.03;1.10;;;42.10;65.30;;;;;;5051586;28;20502;-89
2022/08/21 11:09:45;;;;;;;3.70;1.23;;;41.40;76.00;;;;;;5053703;28;20036;-89
2022/08/21 11:12:35;;;;;;;1.92;1.40;;;38.60;69.80;;;;;;5055627;28;20490;-89
2022/08/21 11:15:24;;;;;;;2.22;1.30;;;38.30;74.70;;;;;;5055530;28;20028;-89
2022/08/21 11:18:01;;;;;;;4.47;1.60;;;38.70;74.60;;;;;;5055712;28;20071;-89
2022/08/21 11:20:36;;;;;;;4.63;1.30;;;40.00;66.40;;;;;;5055435;28;20418;-89
2022/08/21 11:23:15;;;;;;;3.30;1.88;;;41.90;48.80;;;;;;5055195;28;20437;-90
2022/08/21 11:25:46;;;;;;;2.33;1.45;;;41.50;48.20;;;;;;5055501;28;20482;-90
2022/08/21 11:28:25;;;;;;;3.30;1.60;;;40.90;42.90;;;;;;5055243;28;20045;-90
2022/08/21 11:31:25;;;;;;;6.40;1.40;;;40.30;47.30;;;;;;5035445;28;20124;-90
2022/08/21 11:34:13;;;;;;;3.58;1.60;;;38.90;44.60;;;;;;5035361;28;20022;-89
2022/08/21 11:36:50;;;;;;;3.92;2.00;;;39.90;58.80;;;;;;5017296;28;20144;-89
2022/08/21 11:39:32;;;;;;;3.92;2.03;;;40.40;48.30;;;;;;5035285;28;20025;-90
2022/08/21 11:42:15;;;;;;;3.78;2.25;;;39.80;42.50;;;;;;5035269;28;20032;-89
2022/08/21 11:45:02;;;;;;;3.22;2.22;;;41.20;52.30;;;;;;5035349;28;20029;-89
2022/08/21 11:47:30;;;;;;;3.33;1.90;;;41.70;50.40;;;;;;5035121;28;20022;-90
2022/08/21 11:50:11;;;;;;;3.72;2.17;;;43.30;39.40;;;;;;5034912;28;20079;-89
2022/08/21 11:53:09;;;;;;;2.47;1.60;;;42.90;49.20;;;;;;5035055;28;20029;-90
2022/08/21 11:55:50;;;;;;;3.63;1.80;;;42.50;43.60;;;;;;5034181;28;20112;-90
2022/08/21 11:58:28;;;;;;;2.70;1.60;;;41.90;48.10;;;;;;5034814;28;20056;-90
2022/08/21 12:00:58;;;;;;;2.55;1.70;;;40.60;38.40;;;;;;5034927;28;20113;-89
2022/08/21 12:03:50;;;;;;;3.25;1.80;;;40.80;39.40;;;;;;5034681;28;20029;-90
2022/08/21 12:06:27;;;;;;;5.88;1.70;;;40.90;38.60;;;;;;5034352;28;20045;-90
2022/08/21 12:09:05;;;;;;;2.22;1.40;;;41.40;36.70;;;;;;5034589;28;20033;-90
2022/08/21 12:11:31;;;;;;;1.42;1.30;;;41.00;38.90;;;;;;5034611;28;20043;-89
2022/08/21 12:14:06;;;;;;;2.33;1.20;;;42.70;34.00;;;;;;5041952;28;20053;-89
2022/08/21 12:16:36;;;;;;;3.00;1.35;;;42.80;32.60;;;;;;5054400;28;20542;-89
2022/08/21 12:19:07;;;;;;;2.35;1.52;;;41.50;36.30;;;;;;5054563;28;20108;-89
2022/08/21 12:21:34;;;;;;;3.55;1.20;;;41.70;34.30;;;;;;5053174;28;20036;-90
2022/08/21 12:24:18;;;;;;;2.88;1.40;;;41.10;30.60;;;;;;5054610;28;20017;-90
2022/08/21 12:26:56;;;;;;;6.35;4.60;;;39.60;28.80;;;;;;5054077;28;20037;-90
2022/08/21 12:29:27;;;;;;;4.55;2.20;;;41.40;37.40;;;;;;5054067;28;20045;-90
2022/08/21 12:31:58;;;;;;;4.00;1.70;;;41.20;34.50;;;;;;5054333;28;20025;-89
2022/08/21 12:34:34;;;;;;;2.88;1.60;;;42.50;38.30;;;;;;5053871;28;20036;-87
2022/08/21 12:37:05;;;;;;;3.22;1.48;;;43.90;34.80;;;;;;5054117;28;20017;-87
2022/08/21 12:39:36;;;;;;;2.25;1.30;;;44.30;35.50;;;;;;5053906;28;20025;-88
2022/08/21 12:42:18;;;;;;;3.30;1.77;;;43.60;40.10;;;;;;5054116;28;20546;-87
2022/08/21 12:44:49;;;;;;;1.70;1.10;;;43.80;31.10;;;;;;5053977;28;20028;-88
2022/08/21 12:47:26;;;;;;;3.53;1.50;;;45.50;32.00;;;;;;5035982;28;20078;-87
2022/08/21 12:50:07;;;;;;;2.40;1.10;;;44.70;32.60;;;;;;5053577;28;20120;-87
2022/08/21 12:52:34;;;;;;;2.65;1.40;;;45.40;35.40;;;;;;5053794;28;20025;-87
2022/08/21 12:55:00;;;;;;;1.95;1.10;;;45.10;30.60;;;;;;5053784;28;20482;-87
2022/08/21 12:57:28;;;;;;;1.63;1.20;;;43.20;32.00;;;;;;5053653;28;20033;-88
2022/08/21 12:59:59;;;;;;;3.08;1.25;;;43.00;32.00;;;;;;5053785;28;20085;-88
2022/08/21 13:02:34;;;;;;;2.38;1.30;;;39.80;29.20;;;;;;5053607;28;20035;-87
2022/08/21 13:05:05;;;;;;;2.80;1.50;;;37.60;29.50;;;;;;5053292;28;20095;-87
2022/08/21 13:07:34;;;;;;;2.70;1.27;;;37.40;24.50;;;;;;5053520;28;20017;-87